createdAt,value
2017-09-19T00:00:22.145Z,43.40
2017-09-19T00:01:22.141Z,44.70
2017-09-19T00:02:22.137Z,45.50
2017-09-19T00:03:22.134Z,45.10
2017-09-19T00:04:22.131Z,44.30
2017-09-19T00:05:22.127Z,42.80
2017-09-19T00:06:22.126Z,45.50
2017-09-19T00:07:22.121Z,45.70
2017-09-19T00:08:22.118Z,43.80
2017-09-19T00:09:22.116Z,45.10
2017-09-19T00:10:22.127Z,42.70
2017-09-19T00:11:22.109Z,46.50
2017-09-19T00:12:22.105Z,45.40
2017-09-19T00:13:22.103Z,48.50
2017-09-19T00:14:22.101Z,44.70
2017-09-19T00:15:22.095Z,46.60
2017-09-19T00:16:22.092Z,48.50
2017-09-19T00:17:22.089Z,46.20
2017-09-19T00:18:22.089Z,44.80
2017-09-19T00:19:22.082Z,48.20
2017-09-19T00:20:22.080Z,45.60
2017-09-19T00:21:22.077Z,49.00
2017-09-19T00:22:22.074Z,44.10
2017-09-19T00:23:22.071Z,47.60
2017-09-19T00:24:22.068Z,47.10
2017-09-19T00:25:22.066Z,49.50
2017-09-19T00:26:22.063Z,47.30
2017-09-19T00:27:22.057Z,46.80
2017-09-19T00:28:22.055Z,47.80
2017-09-19T00:29:22.051Z,48.90
2017-09-19T00:30:22.047Z,49.20
2017-09-19T00:31:22.043Z,48.60
2017-09-19T00:32:22.041Z,48.70
2017-09-19T00:33:22.039Z,49.10
2017-09-19T00:34:22.036Z,48.00
2017-09-19T00:35:22.032Z,51.70
2017-09-19T00:36:22.029Z,49.70
2017-09-19T00:37:22.025Z,46.80
2017-09-19T00:38:22.023Z,49.50
2017-09-19T00:39:22.020Z,49.50
2017-09-19T00:40:22.015Z,47.50
2017-09-19T00:41:22.012Z,50.00
2017-09-19T00:42:22.009Z,51.90
2017-09-19T00:43:22.005Z,52.00
2017-09-19T00:44:22.003Z,50.20
2017-09-19T00:45:22.001Z,48.60
2017-09-19T00:46:22.002Z,48.50
2017-09-19T00:47:21.993Z,49.20
2017-09-19T00:48:21.990Z,50.20
2017-09-19T00:49:21.989Z,49.90
2017-09-19T00:50:21.985Z,45.70
2017-09-19T00:51:21.981Z,49.70
2017-09-19T00:52:21.977Z,52.20
2017-09-19T00:53:21.975Z,50.50
2017-09-19T00:54:21.971Z,50.40
2017-09-19T00:55:21.971Z,51.50
2017-09-19T00:56:21.963Z,52.50
2017-09-19T00:57:21.960Z,52.10
2017-09-19T00:58:21.958Z,52.00
2017-09-19T00:59:21.955Z,48.30
2017-09-19T01:00:21.952Z,47.90
2017-09-19T01:01:21.948Z,50.00
2017-09-19T01:02:21.944Z,49.20
2017-09-19T01:03:21.941Z,46.30
2017-09-19T01:04:21.939Z,48.70
2017-09-19T01:05:21.935Z,48.90
2017-09-19T01:06:21.931Z,48.00
2017-09-19T01:07:21.929Z,47.20
2017-09-19T01:08:21.925Z,49.10
2017-09-19T01:09:21.923Z,50.90
2017-09-19T01:10:21.920Z,48.10
2017-09-19T01:11:21.915Z,49.90
2017-09-19T01:12:21.913Z,47.40
2017-09-19T01:13:21.908Z,46.50
2017-09-19T01:14:21.907Z,48.40
2017-09-19T01:15:21.903Z,50.20
2017-09-19T01:16:21.901Z,50.70
2017-09-19T01:17:21.897Z,51.10
2017-09-19T01:18:21.892Z,49.90
2017-09-19T01:19:21.893Z,49.80
2017-09-19T01:20:21.886Z,49.80
2017-09-19T01:21:21.882Z,47.10
2017-09-19T01:22:21.880Z,50.30
2017-09-19T01:23:21.876Z,47.30
2017-09-19T01:24:21.875Z,45.80
2017-09-19T01:25:21.870Z,50.70
2017-09-19T01:26:21.868Z,48.90
2017-09-19T01:27:21.862Z,48.40
2017-09-19T01:28:21.860Z,48.60
2017-09-19T01:29:21.857Z,50.50
2017-09-19T01:30:21.854Z,48.90
2017-09-19T01:31:21.849Z,50.50
2017-09-19T01:32:21.851Z,49.00
2017-09-19T01:33:21.845Z,48.40
2017-09-19T01:34:21.841Z,51.30
2017-09-19T01:35:21.837Z,50.10
2017-09-19T01:36:21.833Z,52.90
2017-09-19T01:37:21.838Z,49.80
2017-09-19T01:38:21.828Z,47.80
2017-09-19T01:39:21.824Z,48.50
2017-09-19T01:40:21.821Z,47.70
2017-09-19T01:41:21.817Z,49.40
2017-09-19T01:42:21.815Z,47.30
2017-09-19T01:43:21.812Z,50.50
2017-09-19T01:44:21.808Z,50.40
2017-09-19T01:45:21.804Z,48.30
2017-09-19T01:46:21.801Z,47.70
2017-09-19T01:47:21.797Z,49.20
2017-09-19T01:48:21.795Z,50.30
2017-09-19T01:49:21.791Z,48.60
2017-09-19T01:50:21.789Z,49.50
2017-09-19T01:51:21.785Z,49.00
2017-09-19T01:52:21.782Z,51.70
2017-09-19T01:53:21.778Z,51.20
2017-09-19T01:54:21.775Z,50.30
2017-09-19T01:55:21.772Z,49.30
2017-09-19T01:56:21.769Z,49.10
2017-09-19T01:57:21.772Z,47.90
2017-09-19T01:58:21.762Z,49.60
2017-09-19T01:59:21.759Z,53.40
2017-09-19T02:00:21.763Z,51.00
2017-09-19T02:01:21.763Z,52.10
2017-09-19T02:02:21.794Z,49.80
2017-09-19T02:03:21.758Z,50.70
2017-09-19T02:04:21.753Z,51.40
2017-09-19T02:05:21.752Z,50.60
2017-09-19T02:06:21.744Z,51.90
2017-09-19T02:07:21.739Z,51.90
2017-09-19T02:08:21.736Z,52.20
2017-09-19T02:09:21.734Z,50.00
2017-09-19T02:10:21.732Z,48.30
2017-09-19T02:11:21.726Z,49.30
2017-09-19T02:12:21.722Z,50.60
2017-09-19T02:13:21.721Z,49.30
2017-09-19T02:14:21.722Z,52.00
2017-09-19T02:15:21.717Z,53.80
2017-09-19T02:16:21.714Z,50.50
2017-09-19T02:17:21.716Z,55.60
2017-09-19T02:18:21.710Z,52.60
2017-09-19T02:19:21.703Z,49.70
2017-09-19T02:20:21.702Z,54.10
2017-09-19T02:21:21.699Z,52.50
2017-09-19T02:22:21.691Z,50.80
2017-09-19T02:23:21.688Z,50.20
2017-09-19T02:24:21.685Z,51.30
2017-09-19T02:25:21.681Z,51.10
2017-09-19T02:26:21.678Z,49.70
2017-09-19T02:27:21.673Z,50.80
2017-09-19T02:28:21.671Z,50.00
2017-09-19T02:29:21.669Z,50.60
2017-09-19T02:30:21.668Z,48.80
2017-09-19T02:31:21.666Z,49.60
2017-09-19T02:32:21.664Z,47.50
2017-09-19T02:33:21.661Z,49.50
2017-09-19T02:34:21.658Z,48.80
2017-09-19T02:35:21.653Z,48.40
2017-09-19T02:36:21.650Z,45.30
2017-09-19T02:37:21.646Z,48.60
2017-09-19T02:38:21.639Z,53.30
2017-09-19T02:39:21.635Z,51.50
2017-09-19T02:40:21.640Z,53.10
2017-09-19T02:41:21.630Z,51.20
2017-09-19T02:42:21.627Z,52.50
2017-09-19T02:43:21.623Z,50.60
2017-09-19T02:44:21.619Z,53.00
2017-09-19T02:45:21.617Z,51.70
2017-09-19T02:46:21.617Z,54.20
2017-09-19T02:47:21.615Z,54.40
2017-09-19T02:48:21.617Z,52.20
2017-09-19T02:49:21.607Z,55.30
2017-09-19T02:50:21.606Z,55.70
2017-09-19T02:51:21.601Z,55.80
2017-09-19T02:52:21.599Z,53.10
2017-09-19T02:53:21.595Z,55.10
2017-09-19T02:54:21.592Z,50.40
2017-09-19T02:55:21.584Z,53.00
2017-09-19T02:56:21.584Z,55.70
2017-09-19T02:57:21.579Z,51.00
2017-09-19T02:58:21.576Z,52.00
2017-09-19T02:59:21.572Z,52.80
2017-09-19T03:00:21.569Z,55.30
2017-09-19T03:01:21.567Z,55.40
2017-09-19T03:02:21.567Z,55.60
2017-09-19T03:03:21.563Z,55.30
2017-09-19T03:04:21.569Z,52.90
2017-09-19T03:05:21.556Z,54.20
2017-09-19T03:06:21.553Z,55.60
2017-09-19T03:07:21.550Z,54.60
2017-09-19T03:08:21.547Z,54.10
2017-09-19T03:09:21.545Z,53.70
2017-09-19T03:10:21.538Z,53.10
2017-09-19T03:11:21.537Z,55.60
2017-09-19T03:12:21.530Z,56.70
2017-09-19T03:13:21.530Z,53.40
2017-09-19T03:14:21.526Z,54.70
2017-09-19T03:15:21.521Z,53.60
2017-09-19T03:16:21.518Z,53.40
2017-09-19T03:17:21.514Z,51.30
2017-09-19T03:18:21.516Z,50.90
2017-09-19T03:19:21.512Z,51.30
2017-09-19T03:20:21.509Z,50.40
2017-09-19T03:21:21.507Z,49.30
2017-09-19T03:22:21.504Z,52.50
2017-09-19T03:23:21.499Z,50.20
2017-09-19T03:24:21.496Z,51.30
2017-09-19T03:25:21.494Z,53.40
2017-09-19T03:26:21.486Z,51.00
2017-09-19T03:27:21.483Z,48.30
2017-09-19T03:28:21.480Z,52.10
2017-09-19T03:29:21.477Z,51.30
2017-09-19T03:30:21.477Z,51.00
2017-09-19T03:31:21.469Z,50.00
2017-09-19T03:32:21.469Z,52.20
2017-09-19T03:33:21.463Z,51.50
2017-09-19T03:34:21.464Z,50.00
2017-09-19T03:35:21.460Z,53.00
2017-09-19T03:36:21.457Z,52.80
2017-09-19T03:37:21.455Z,52.30
2017-09-19T03:38:21.453Z,51.00
2017-09-19T03:39:21.451Z,52.10
2017-09-19T03:40:21.446Z,54.40
2017-09-19T03:41:21.441Z,49.50
2017-09-19T03:42:21.434Z,50.80
2017-09-19T03:43:21.432Z,49.00
2017-09-19T03:44:21.428Z,50.90
2017-09-19T03:45:21.424Z,50.80
2017-09-19T03:46:21.423Z,52.50
2017-09-19T03:47:21.417Z,49.30
2017-09-19T03:48:21.414Z,49.40
2017-09-19T03:49:21.414Z,50.60
2017-09-19T03:50:21.414Z,51.60
2017-09-19T03:51:21.411Z,53.00
2017-09-19T03:52:21.408Z,50.00
2017-09-19T03:53:21.403Z,51.80
2017-09-19T03:54:21.401Z,52.00
2017-09-19T03:55:21.397Z,49.60
2017-09-19T03:56:21.394Z,52.90
2017-09-19T03:57:21.391Z,50.10
2017-09-19T03:58:21.384Z,50.80
2017-09-19T03:59:21.380Z,51.60
2017-09-19T04:00:21.377Z,49.80
2017-09-19T04:01:21.373Z,49.20
2017-09-19T04:02:21.377Z,50.30
2017-09-19T04:03:21.371Z,48.90
2017-09-19T04:04:21.368Z,50.10
2017-09-19T04:05:21.366Z,49.10
2017-09-19T04:06:21.358Z,48.50
2017-09-19T04:07:21.353Z,46.40
2017-09-19T04:08:21.351Z,50.60
2017-09-19T04:09:21.348Z,50.30
2017-09-19T04:10:21.345Z,50.40
2017-09-19T04:11:21.341Z,48.60
2017-09-19T04:12:21.338Z,49.20
2017-09-19T04:13:21.335Z,48.00
2017-09-19T04:14:21.336Z,48.40
2017-09-19T04:15:21.332Z,48.40
2017-09-19T04:16:21.329Z,49.70
2017-09-19T04:17:21.326Z,51.20
2017-09-19T04:18:21.323Z,47.50
2017-09-19T04:19:21.319Z,50.10
2017-09-19T04:20:21.316Z,51.10
2017-09-19T04:21:21.314Z,51.20
2017-09-19T04:22:21.305Z,51.00
2017-09-19T04:23:21.301Z,52.60
2017-09-19T04:24:21.299Z,51.20
2017-09-19T04:25:21.297Z,51.40
2017-09-19T04:26:21.293Z,53.60
2017-09-19T04:27:21.289Z,52.40
2017-09-19T04:28:21.286Z,54.50
2017-09-19T04:29:21.282Z,53.20
2017-09-19T04:30:21.283Z,53.30
2017-09-19T04:31:21.309Z,52.30
2017-09-19T04:32:21.276Z,52.60
2017-09-19T04:33:21.274Z,52.30
2017-09-19T04:34:21.270Z,54.40
2017-09-19T04:35:21.265Z,51.30
2017-09-19T04:36:21.264Z,53.40
2017-09-19T04:37:21.262Z,53.40
2017-09-19T04:38:21.252Z,52.90
2017-09-19T04:39:21.249Z,49.60
2017-09-19T04:40:21.247Z,50.00
2017-09-19T04:41:21.241Z,52.20
2017-09-19T04:42:21.240Z,51.70
2017-09-19T04:43:21.236Z,50.70
2017-09-19T04:44:21.237Z,48.80
2017-09-19T04:45:21.230Z,50.60
2017-09-19T04:46:21.231Z,52.10
2017-09-19T04:47:21.226Z,53.50
2017-09-19T04:48:21.222Z,54.70
2017-09-19T04:49:21.220Z,56.10
2017-09-19T04:50:21.218Z,56.30
2017-09-19T04:51:21.213Z,53.40
2017-09-19T04:52:21.210Z,55.50
2017-09-19T04:53:21.207Z,56.90
2017-09-19T04:54:21.200Z,55.90
2017-09-19T04:55:21.195Z,54.70
2017-09-19T04:56:21.193Z,52.90
2017-09-19T04:57:21.190Z,55.10
2017-09-19T04:58:21.187Z,51.80
2017-09-19T04:59:21.182Z,53.90
2017-09-19T05:00:21.179Z,56.20
2017-09-19T05:01:21.176Z,54.60
2017-09-19T05:02:21.179Z,56.80
2017-09-19T05:03:21.173Z,57.70
2017-09-19T05:04:21.170Z,56.80
2017-09-19T05:05:21.166Z,58.20
2017-09-19T05:06:21.160Z,57.40
2017-09-19T05:07:21.155Z,54.10
2017-09-19T05:08:21.152Z,55.20
2017-09-19T05:09:21.149Z,54.70
2017-09-19T05:10:21.152Z,54.00
2017-09-19T05:11:21.149Z,57.20
2017-09-19T05:12:21.143Z,55.40
2017-09-19T05:13:21.140Z,56.10
2017-09-19T05:14:21.139Z,51.90
2017-09-19T05:15:21.133Z,54.20
2017-09-19T05:16:21.130Z,53.90
2017-09-19T05:17:21.130Z,51.80
2017-09-19T05:18:21.120Z,57.00
2017-09-19T05:19:21.141Z,53.50
2017-09-19T05:20:21.112Z,54.20
2017-09-19T05:21:21.109Z,55.10
2017-09-19T05:22:21.106Z,55.80
2017-09-19T05:23:21.103Z,57.50
2017-09-19T05:24:21.098Z,57.20
2017-09-19T05:25:21.099Z,57.00
2017-09-19T05:26:21.098Z,54.90
2017-09-19T05:27:21.093Z,53.90
2017-09-19T05:28:21.089Z,56.40
2017-09-19T05:29:21.087Z,59.40
2017-09-19T05:30:21.083Z,56.60
2017-09-19T05:31:21.079Z,55.20
2017-09-19T05:32:21.076Z,57.60
2017-09-19T05:33:21.074Z,59.40
2017-09-19T05:34:21.067Z,57.10
2017-09-19T05:35:21.062Z,57.50
2017-09-19T05:36:21.059Z,56.00
2017-09-19T05:37:21.056Z,52.90
2017-09-19T05:38:21.053Z,55.20
2017-09-19T05:39:21.050Z,53.00
2017-09-19T05:40:21.054Z,53.00
2017-09-19T05:41:21.044Z,54.00
2017-09-19T05:42:21.044Z,57.20
2017-09-19T05:43:21.041Z,55.50
2017-09-19T05:44:21.038Z,54.30
2017-09-19T05:45:21.034Z,57.00
2017-09-19T05:46:21.031Z,57.60
2017-09-19T05:47:21.028Z,57.20
2017-09-19T05:48:21.024Z,55.00
2017-09-19T05:49:21.022Z,57.50
2017-09-19T05:50:21.013Z,57.00
2017-09-19T05:51:21.010Z,54.10
2017-09-19T05:52:21.007Z,57.90
2017-09-19T05:53:21.005Z,57.40
2017-09-19T05:54:21.000Z,55.70
2017-09-19T05:55:20.997Z,58.20
2017-09-19T05:56:20.994Z,56.20
2017-09-19T05:57:20.991Z,55.50
2017-09-19T05:58:20.992Z,58.40
2017-09-19T05:59:20.988Z,56.70
2017-09-19T06:00:20.987Z,57.40
2017-09-19T06:01:20.983Z,57.50
2017-09-19T06:02:20.980Z,61.20
2017-09-19T06:03:20.974Z,57.80
2017-09-19T06:04:20.973Z,58.80
2017-09-19T06:05:20.970Z,55.60
2017-09-19T06:06:20.962Z,55.00
2017-09-19T06:07:20.960Z,58.90
2017-09-19T06:08:20.955Z,55.80
2017-09-19T06:09:20.954Z,54.40
2017-09-19T06:10:20.955Z,56.40
2017-09-19T06:11:20.951Z,56.20
2017-09-19T06:12:20.947Z,54.00
2017-09-19T06:13:20.944Z,54.70
2017-09-19T06:14:20.937Z,56.10
2017-09-19T06:15:20.935Z,55.60
2017-09-19T06:16:20.931Z,52.80
2017-09-19T06:17:20.928Z,54.00
2017-09-19T06:18:20.925Z,52.60
2017-09-19T06:19:20.920Z,57.50
2017-09-19T06:20:20.918Z,57.40
2017-09-19T06:21:20.915Z,57.90
2017-09-19T06:22:20.921Z,52.30
2017-09-19T06:23:20.913Z,53.70
2017-09-19T06:24:20.913Z,59.20
2017-09-19T06:25:20.909Z,59.10
2017-09-19T06:26:20.904Z,57.20
2017-09-19T06:27:20.901Z,59.80
2017-09-19T06:28:20.897Z,59.20
2017-09-19T06:29:20.894Z,58.80
2017-09-19T06:30:20.889Z,59.30
2017-09-19T06:31:20.883Z,59.50
2017-09-19T06:32:20.883Z,61.20
2017-09-19T06:33:20.878Z,58.10
2017-09-19T06:34:20.876Z,58.10
2017-09-19T06:35:20.872Z,55.10
2017-09-19T06:36:20.868Z,52.20
2017-09-19T06:37:20.865Z,54.30
2017-09-19T06:38:20.867Z,53.60
2017-09-19T06:39:20.865Z,54.20
2017-09-19T06:40:20.861Z,54.40
2017-09-19T06:41:20.858Z,53.00
2017-09-19T06:42:20.856Z,53.80
2017-09-19T06:43:20.852Z,53.00
2017-09-19T06:44:20.849Z,51.10
2017-09-19T06:45:20.846Z,52.00
2017-09-19T06:46:20.839Z,49.10
2017-09-19T06:47:20.836Z,48.90
2017-09-19T06:48:20.833Z,47.80
2017-09-19T06:49:20.830Z,48.60
2017-09-19T06:50:20.827Z,48.70
2017-09-19T06:51:20.824Z,49.60
2017-09-19T06:52:20.846Z,49.30
2017-09-19T06:53:20.818Z,51.40
2017-09-19T06:54:20.821Z,50.80
2017-09-19T06:55:20.815Z,50.80
2017-09-19T06:56:20.812Z,54.20
2017-09-19T06:57:20.810Z,52.20
2017-09-19T06:58:20.808Z,53.70
2017-09-19T06:59:20.803Z,54.70
2017-09-19T07:00:20.801Z,53.10
2017-09-19T07:01:20.798Z,53.10
2017-09-19T07:02:20.793Z,52.30
2017-09-19T07:03:20.792Z,51.60
2017-09-19T07:04:20.785Z,50.60
2017-09-19T07:05:20.782Z,52.00
2017-09-19T07:06:20.782Z,50.00
2017-09-19T07:07:20.775Z,52.70
2017-09-19T07:08:20.775Z,53.20
2017-09-19T07:09:20.773Z,51.40
2017-09-19T07:10:20.773Z,50.20
2017-09-19T07:11:20.769Z,50.70
2017-09-19T07:12:20.766Z,49.50
2017-09-19T07:13:20.765Z,51.80
2017-09-19T07:14:20.757Z,50.50
2017-09-19T07:15:20.753Z,48.70
2017-09-19T07:16:20.752Z,46.60
2017-09-19T07:17:20.753Z,46.10
2017-09-19T07:18:20.748Z,49.70
2017-09-19T07:19:20.745Z,48.80
2017-09-19T07:20:20.743Z,44.90
2017-09-19T07:21:20.740Z,47.10
2017-09-19T07:22:20.738Z,44.90
2017-09-19T07:23:20.733Z,44.80
2017-09-19T07:24:20.733Z,43.30
2017-09-19T07:25:20.729Z,46.70
2017-09-19T07:26:20.724Z,45.20
2017-09-19T07:27:20.718Z,44.50
2017-09-19T07:28:20.716Z,43.00
2017-09-19T07:29:20.713Z,44.60
2017-09-19T07:30:20.711Z,45.10
2017-09-19T07:31:20.708Z,43.00
2017-09-19T07:32:20.705Z,44.50
2017-09-19T07:33:20.712Z,42.10
2017-09-19T07:34:20.704Z,43.70
2017-09-19T07:35:20.700Z,45.20
2017-09-19T07:36:20.699Z,43.00
2017-09-19T07:37:20.695Z,42.40
2017-09-19T07:38:20.692Z,40.10
2017-09-19T07:39:20.691Z,39.80
2017-09-19T07:40:20.786Z,38.80
2017-09-19T07:41:20.686Z,38.80
2017-09-19T07:42:20.679Z,37.60
2017-09-19T07:43:20.674Z,40.70
2017-09-19T07:44:20.673Z,40.10
2017-09-19T07:45:20.670Z,39.20
2017-09-19T07:46:20.666Z,39.40
2017-09-19T07:47:20.665Z,37.90
2017-09-19T07:48:20.663Z,39.00
2017-09-19T07:49:20.660Z,37.00
2017-09-19T07:50:20.661Z,36.00
2017-09-19T07:51:20.660Z,38.00
2017-09-19T07:52:20.659Z,37.00
2017-09-19T07:53:20.654Z,36.30
2017-09-19T07:54:20.651Z,39.90
2017-09-19T07:55:20.649Z,36.40
2017-09-19T07:56:20.647Z,37.40
2017-09-19T07:57:20.647Z,37.30
2017-09-19T07:58:20.638Z,35.80
2017-09-19T07:59:20.635Z,39.70
2017-09-19T08:00:20.632Z,39.50
2017-09-19T08:01:20.629Z,38.40
2017-09-19T08:02:20.628Z,38.20
2017-09-19T08:03:20.623Z,38.20
2017-09-19T08:04:20.623Z,38.50
2017-09-19T08:05:20.621Z,41.70
2017-09-19T08:06:20.622Z,39.80
2017-09-19T08:07:20.620Z,39.10
2017-09-19T08:08:20.617Z,38.90
2017-09-19T08:09:20.615Z,38.00
2017-09-19T08:10:20.613Z,36.80
2017-09-19T08:11:20.610Z,36.70
2017-09-19T08:12:20.608Z,36.10
2017-09-19T08:13:20.606Z,36.20
2017-09-19T08:14:20.602Z,37.50
2017-09-19T08:15:20.598Z,38.00
2017-09-19T08:16:20.599Z,37.80
2017-09-19T08:17:20.594Z,38.00
2017-09-19T08:18:20.597Z,38.30
2017-09-19T08:19:20.595Z,38.60
2017-09-19T08:20:20.592Z,36.80
2017-09-19T08:21:20.593Z,37.20
2017-09-19T08:22:20.591Z,37.00
2017-09-19T08:23:20.583Z,37.50
2017-09-19T08:24:20.581Z,36.80
2017-09-19T08:25:20.580Z,37.20
2017-09-19T08:26:20.580Z,40.60
2017-09-19T08:27:20.576Z,39.80
2017-09-19T08:28:20.582Z,39.20
2017-09-19T08:29:20.573Z,40.60
2017-09-19T08:30:20.578Z,40.60
2017-09-19T08:31:20.575Z,38.60
2017-09-19T08:32:20.574Z,39.10
2017-09-19T08:33:20.573Z,40.20
2017-09-19T08:34:20.572Z,41.00
2017-09-19T08:35:20.569Z,40.20
2017-09-19T08:36:20.567Z,41.30
2017-09-19T08:37:20.566Z,39.10
2017-09-19T08:38:20.566Z,39.60
2017-09-19T08:39:20.561Z,39.30
2017-09-19T08:40:20.587Z,38.40
2017-09-19T08:41:20.559Z,37.00
2017-09-19T08:42:20.556Z,35.50
2017-09-19T08:43:20.553Z,31.80
2017-09-19T08:44:20.553Z,32.10
2017-09-19T08:45:20.552Z,35.20
2017-09-19T08:46:20.555Z,37.60
2017-09-19T08:47:20.554Z,36.50
2017-09-19T08:48:20.554Z,37.50
2017-09-19T08:49:20.551Z,35.10
2017-09-19T08:50:20.549Z,34.90
2017-09-19T08:51:20.551Z,35.90
2017-09-19T08:52:20.547Z,37.00
2017-09-19T08:53:20.545Z,36.40
2017-09-19T08:54:20.542Z,35.80
2017-09-19T08:55:20.547Z,36.70
2017-09-19T08:56:20.544Z,36.30
2017-09-19T08:57:20.661Z,36.90
2017-09-19T08:58:20.797Z,37.70
2017-09-19T08:59:20.540Z,38.30
2017-09-19T09:00:20.653Z,39.80
2017-09-19T09:01:20.702Z,38.70
2017-09-19T09:02:20.647Z,38.30
2017-09-19T09:03:20.556Z,38.40
2017-09-19T09:04:20.570Z,38.50
2017-09-19T09:05:20.592Z,38.20
2017-09-19T09:06:20.694Z,40.10
2017-09-19T09:07:20.585Z,38.60
2017-09-19T09:08:20.612Z,37.40
2017-09-19T09:09:20.602Z,36.20
2017-09-19T09:10:20.523Z,36.30
2017-09-19T09:11:20.526Z,37.70
2017-09-19T09:12:20.530Z,37.60
2017-09-19T09:13:20.727Z,36.20
2017-09-19T09:14:20.585Z,34.90
2017-09-19T09:15:20.567Z,35.00
2017-09-19T09:16:20.615Z,33.20
2017-09-19T09:17:20.516Z,34.00
2017-09-19T09:18:20.518Z,34.50
2017-09-19T09:19:20.518Z,32.70
2017-09-19T09:20:20.517Z,32.00
2017-09-19T09:21:20.517Z,31.80
2017-09-19T09:22:20.512Z,32.00
2017-09-19T09:23:20.511Z,31.80
2017-09-19T09:24:20.511Z,31.70
2017-09-19T09:25:20.511Z,30.80
2017-09-19T09:26:20.515Z,30.20
2017-09-19T09:27:20.513Z,31.50
2017-09-19T09:28:20.514Z,31.50
2017-09-19T09:29:20.513Z,30.00
2017-09-19T09:30:20.513Z,30.60
2017-09-19T09:31:20.512Z,30.70
2017-09-19T09:32:20.514Z,30.40
2017-09-19T09:33:20.512Z,31.10
2017-09-19T09:34:20.508Z,31.50
2017-09-19T09:35:20.507Z,31.20
2017-09-19T09:36:20.508Z,31.60
2017-09-19T09:37:20.508Z,31.50
2017-09-19T09:38:20.509Z,32.10
2017-09-19T09:39:20.508Z,31.30
2017-09-19T09:40:20.508Z,30.70
2017-09-19T09:41:20.508Z,30.50
2017-09-19T09:42:20.515Z,29.80
2017-09-19T09:43:20.512Z,30.30
2017-09-19T09:44:20.511Z,29.90
2017-09-19T09:45:20.512Z,28.00
2017-09-19T09:46:20.513Z,27.30
2017-09-19T09:47:20.513Z,28.40
2017-09-19T09:48:20.513Z,27.10
2017-09-19T09:49:20.514Z,26.30
2017-09-19T09:50:20.509Z,26.70
2017-09-19T09:51:20.513Z,25.60
2017-09-19T09:52:20.511Z,25.80
2017-09-19T09:53:20.511Z,26.30
2017-09-19T09:54:20.514Z,27.00
2017-09-19T09:55:20.513Z,25.80
2017-09-19T09:56:20.514Z,26.20
2017-09-19T09:57:20.514Z,26.20
2017-09-19T09:58:20.521Z,25.00
2017-09-19T09:59:20.520Z,26.00
2017-09-19T10:00:20.523Z,26.30
2017-09-19T10:01:20.524Z,26.30
2017-09-19T10:02:20.525Z,26.20
2017-09-19T10:03:20.529Z,27.30
2017-09-19T10:04:20.528Z,27.30
2017-09-19T10:05:20.529Z,27.40
2017-09-19T10:06:20.526Z,27.80
2017-09-19T10:07:20.526Z,28.30
2017-09-19T10:08:20.527Z,28.40
2017-09-19T10:09:20.529Z,28.80
2017-09-19T10:10:20.536Z,28.70
2017-09-19T10:11:20.531Z,28.80
2017-09-19T10:12:20.531Z,30.50
2017-09-19T10:13:20.567Z,27.50
2017-09-19T10:14:20.539Z,26.80
2017-09-19T10:15:20.537Z,25.40
2017-09-19T10:16:20.540Z,27.10
2017-09-19T10:17:20.640Z,26.20
2017-09-19T10:18:20.542Z,25.20
2017-09-19T10:19:20.541Z,25.20
2017-09-19T10:20:20.542Z,25.10
2017-09-19T10:21:20.544Z,23.60
2017-09-19T10:22:20.539Z,24.20
2017-09-19T10:23:20.539Z,23.30
2017-09-19T10:24:20.540Z,22.00
2017-09-19T10:25:20.540Z,22.40
2017-09-19T10:26:20.547Z,22.10
2017-09-19T10:27:20.547Z,22.20
2017-09-19T10:28:20.548Z,22.00
2017-09-19T10:29:20.548Z,22.80
2017-09-19T10:30:20.548Z,24.00
2017-09-19T10:31:20.545Z,25.30
2017-09-19T10:32:20.548Z,24.70
2017-09-19T10:33:20.549Z,24.70
2017-09-19T10:34:20.550Z,25.80
2017-09-19T10:35:20.550Z,25.30
2017-09-19T10:36:20.550Z,27.00
2017-09-19T10:37:20.553Z,26.50
2017-09-19T10:38:20.557Z,26.00
2017-09-19T10:39:20.556Z,26.90
2017-09-19T10:40:20.560Z,26.10
2017-09-19T10:41:20.561Z,26.80
2017-09-19T10:42:20.563Z,27.60
2017-09-19T10:43:20.562Z,26.70
2017-09-19T10:44:20.563Z,26.00
2017-09-19T10:45:20.565Z,25.10
2017-09-19T10:46:20.564Z,23.50
2017-09-19T10:47:20.565Z,22.10
2017-09-19T10:48:20.569Z,23.10
2017-09-19T10:49:20.571Z,23.90
2017-09-19T10:50:20.576Z,22.70
2017-09-19T10:51:20.578Z,21.80
2017-09-19T10:52:20.583Z,20.90
2017-09-19T10:53:20.587Z,20.00
2017-09-19T10:54:20.596Z,20.00
2017-09-19T10:55:20.601Z,19.90
2017-09-19T10:56:20.606Z,20.50
2017-09-19T10:57:20.613Z,19.70
2017-09-19T10:58:20.629Z,20.40
2017-09-19T10:59:20.625Z,19.70
2017-09-19T11:00:20.632Z,20.90
2017-09-19T11:01:20.657Z,20.60
2017-09-19T11:02:20.642Z,18.80
2017-09-19T11:03:20.648Z,18.60
2017-09-19T11:04:20.656Z,18.80
2017-09-19T11:05:20.666Z,18.30
2017-09-19T11:06:20.678Z,18.30
2017-09-19T11:07:20.681Z,18.80
2017-09-19T11:08:20.693Z,18.70
2017-09-19T11:09:20.699Z,18.00
2017-09-19T11:10:20.710Z,18.30
2017-09-19T11:11:20.720Z,19.50
2017-09-19T11:12:20.728Z,19.20
2017-09-19T11:13:20.739Z,20.00
2017-09-19T11:14:20.747Z,21.40
2017-09-19T11:15:20.758Z,21.80
2017-09-19T11:16:20.766Z,21.70
2017-09-19T11:17:20.775Z,22.70
2017-09-19T11:18:20.783Z,24.20
2017-09-19T11:19:20.787Z,23.90
2017-09-19T11:20:20.796Z,23.80
2017-09-19T11:21:20.805Z,24.80
2017-09-19T11:22:20.813Z,26.00
2017-09-19T11:23:20.825Z,26.70
2017-09-19T11:24:20.827Z,28.20
2017-09-19T11:25:20.835Z,27.50
2017-09-19T11:26:20.846Z,27.50
2017-09-19T11:27:20.851Z,28.10
2017-09-19T11:28:20.859Z,28.60
2017-09-19T11:29:20.866Z,26.70
2017-09-19T11:30:20.871Z,26.40
2017-09-19T11:31:20.878Z,26.90
2017-09-19T11:32:20.881Z,26.40
2017-09-19T11:33:20.887Z,26.10
2017-09-19T11:34:20.888Z,24.20
2017-09-19T11:35:20.891Z,24.80
2017-09-19T11:36:20.897Z,24.20
2017-09-19T11:37:20.901Z,23.70
2017-09-19T11:38:20.904Z,23.00
2017-09-19T11:39:20.909Z,24.80
2017-09-19T11:40:20.912Z,25.20
2017-09-19T11:41:20.916Z,26.40
2017-09-19T11:42:20.923Z,27.30
2017-09-19T11:43:20.924Z,26.60
2017-09-19T11:44:20.930Z,26.80
2017-09-19T11:45:20.931Z,26.10
2017-09-19T11:46:20.935Z,25.90
2017-09-19T11:47:20.935Z,25.30
2017-09-19T11:48:20.937Z,27.00
2017-09-19T11:49:20.940Z,27.60
2017-09-19T11:50:20.938Z,27.20
2017-09-19T11:51:20.941Z,27.80
2017-09-19T11:52:20.941Z,26.10
2017-09-19T11:53:20.943Z,27.20
2017-09-19T11:54:20.945Z,26.70
2017-09-19T11:55:20.946Z,25.60
2017-09-19T11:56:20.947Z,25.40
2017-09-19T11:57:20.948Z,26.20
2017-09-19T11:58:20.954Z,25.00
2017-09-19T11:59:20.956Z,25.00
2017-09-19T12:00:20.956Z,23.90
2017-09-19T12:01:20.957Z,23.50
2017-09-19T12:02:20.959Z,23.50
2017-09-19T12:03:20.960Z,24.10
2017-09-19T12:04:20.961Z,23.30
2017-09-19T12:05:20.963Z,24.00
2017-09-19T12:06:20.959Z,23.30
2017-09-19T12:07:20.959Z,23.20
2017-09-19T12:08:20.960Z,23.10
2017-09-19T12:09:20.963Z,23.00
2017-09-19T12:10:20.964Z,22.90
2017-09-19T12:11:20.964Z,21.90
2017-09-19T12:12:20.965Z,21.40
2017-09-19T12:13:20.967Z,22.50
2017-09-19T12:14:20.973Z,22.20
2017-09-19T12:15:20.975Z,21.90
2017-09-19T12:16:20.974Z,21.90
2017-09-19T12:17:20.977Z,23.50
2017-09-19T12:18:20.978Z,22.10
2017-09-19T12:19:20.978Z,21.20
2017-09-19T12:20:20.979Z,21.50
2017-09-19T12:21:20.982Z,22.80
2017-09-19T12:22:20.980Z,21.00
2017-09-19T12:23:20.981Z,21.30
2017-09-19T12:24:20.980Z,22.30
2017-09-19T12:25:20.982Z,21.10
2017-09-19T12:26:20.984Z,20.80
2017-09-19T12:27:20.985Z,20.90
2017-09-19T12:28:20.988Z,19.90
2017-09-19T12:29:20.989Z,20.10
2017-09-19T12:30:20.995Z,19.40
2017-09-19T12:31:20.994Z,20.30
2017-09-19T12:32:20.997Z,20.10
2017-09-19T12:33:20.998Z,18.10
2017-09-19T12:34:20.996Z,19.20
2017-09-19T12:35:20.998Z,19.30
2017-09-19T12:36:20.998Z,18.40
2017-09-19T12:37:21.000Z,18.90
2017-09-19T12:38:21.005Z,19.40
2017-09-19T12:39:21.006Z,18.80
2017-09-19T12:40:21.008Z,18.50
2017-09-19T12:41:21.012Z,18.40
2017-09-19T12:42:21.011Z,17.10
2017-09-19T12:43:21.012Z,16.70
2017-09-19T12:44:21.012Z,17.00
2017-09-19T12:45:21.012Z,16.00
2017-09-19T12:46:21.013Z,15.50
2017-09-19T12:47:21.011Z,17.10
2017-09-19T12:48:21.012Z,16.00
2017-09-19T12:49:21.012Z,16.10
2017-09-19T12:50:21.014Z,15.10
2017-09-19T12:51:21.014Z,15.30
2017-09-19T12:52:21.015Z,16.00